Time;durP1;ratioP1;P1;durP2;ratioP2;P2;SDS_P1;SDS_P2;PMS_P1;PMS_P2;Temp;Humidity;BMP_temperature;BMP_pressure;BME280_temperature;BME280_humidity;BME280_pressure;Samples;Min_cycle;Max_cycle;Signal;HPM_P1;HPM_P2
2023/01/23 00:00:58;;;;;;;16.02;8.55;;;;;;;-1.20;100.00;100286.63;5104202;28;20047;-78
2023/01/23 00:03:25;;;;;;;11.60;7.65;;;;;;;-1.28;100.00;100268.31;5112611;28;20418;-78
2023/01/23 00:05:58;;;;;;;17.15;8.38;;;;;;;-1.27;100.00;100278.06;5111439;28;20430;-79
2023/01/23 00:08:27;;;;;;;15.25;8.80;;;;;;;-1.31;100.00;100273.84;5112901;28;20048;-79
2023/01/23 00:10:54;;;;;;;14.37;7.60;;;;;;;-1.36;100.00;100265.22;5108688;27;20046;-78
2023/01/23 00:13:20;;;;;;;13.10;7.45;;;;;;;-1.30;100.00;100268.41;5116852;27;20047;-78
2023/01/23 00:15:47;;;;;;;16.38;8.27;;;;;;;-1.31;100.00;100257.81;5112600;27;20406;-78
2023/01/23 00:18:14;;;;;;;16.70;7.65;;;;;;;-1.32;100.00;100256.13;5101015;28;20139;-79
2023/01/23 00:20:41;;;;;;;12.82;6.88;;;;;;;-1.21;100.00;100267.06;5113705;28;20063;-78
2023/01/23 00:23:09;;;;;;;15.10;8.32;;;;;;;-1.26;100.00;100263.78;5106685;28;20048;-79
2023/01/23 00:25:37;;;;;;;16.73;8.60;;;;;;;-1.23;100.00;100266.28;5093934;28;20134;-78
2023/01/23 00:28:04;;;;;;;12.40;7.38;;;;;;;-1.09;100.00;100271.72;5114450;27;20050;-79
2023/01/23 00:30:30;;;;;;;16.33;8.48;;;;;;;-0.97;100.00;100267.53;5112481;27;20522;-78
2023/01/23 00:32:57;;;;;;;17.35;10.02;;;;;;;-0.98;100.00;100259.59;5111476;28;20055;-79
2023/01/23 00:35:23;;;;;;;22.85;10.27;;;;;;;-1.03;100.00;100259.00;5111650;28;20047;-78
2023/01/23 00:37:50;;;;;;;15.15;8.88;;;;;;;-0.93;100.00;100278.91;5100362;27;20496;-79
2023/01/23 00:40:16;;;;;;;15.85;9.30;;;;;;;-1.08;100.00;100264.59;5098389;27;20404;-78
2023/01/23 00:42:44;;;;;;;14.48;7.68;;;;;;;-1.04;100.00;100265.28;5113552;28;20482;-79
2023/01/23 00:45:11;;;;;;;18.35;8.88;;;;;;;-0.94;100.00;100255.84;5114166;27;20479;-79
2023/01/23 00:47:38;;;;;;;17.67;8.55;;;;;;;-0.96;100.00;100233.72;5097708;27;20048;-79
2023/01/23 00:50:05;;;;;;;18.20;9.40;;;;;;;-1.00;100.00;100238.34;5097705;27;20051;-79
2023/01/23 00:52:32;;;;;;;19.25;10.23;;;;;;;-0.94;100.00;100256.69;5110892;28;20427;-79
2023/01/23 00:54:58;;;;;;;21.10;10.40;;;;;;;-0.85;100.00;100273.16;5114518;27;20043;-78
2023/01/23 00:57:25;;;;;;;17.77;8.85;;;;;;;-0.80;100.00;100268.41;5112835;27;20054;-78
2023/01/23 00:59:52;;;;;;;17.08;9.40;;;;;;;-0.92;100.00;100261.94;5098111;28;20050;-78
2023/01/23 01:02:19;;;;;;;18.15;8.70;;;;;;;-0.93;100.00;100242.41;5110278;28;20043;-78
2023/01/23 01:04:45;;;;;;;21.70;9.68;;;;;;;-0.95;100.00;100249.63;5113691;28;20051;-78
2023/01/23 01:07:12;;;;;;;23.00;10.30;;;;;;;-0.92;100.00;100235.25;5103919;28;20054;-78
2023/01/23 01:09:38;;;;;;;17.90;8.35;;;;;;;-0.76;100.00;100268.16;5106031;28;20059;-79
2023/01/23 01:12:06;;;;;;;21.77;9.27;;;;;;;-0.94;100.00;100246.00;5109182;28;20048;-78
2023/01/23 01:14:32;;;;;;;20.30;10.10;;;;;;;-0.85;100.00;100267.81;5094357;28;20052;-78
2023/01/23 01:17:00;;;;;;;20.20;10.82;;;;;;;-0.82;100.00;100276.50;5113478;28;20044;-78
2023/01/23 01:19:27;;;;;;;17.75;9.45;;;;;;;-0.89;100.00;100277.78;5109595;27;20040;-78
2023/01/23 01:21:53;;;;;;;19.65;9.75;;;;;;;-0.83;100.00;100295.28;5110384;27;20060;-78
2023/01/23 01:24:20;;;;;;;20.45;10.52;;;;;;;-0.92;100.00;100269.94;5106036;27;20058;-78
2023/01/23 01:26:46;;;;;;;19.58;10.18;;;;;;;-0.85;100.00;100291.84;5111825;27;20430;-78
2023/01/23 01:29:13;;;;;;;18.83;9.43;;;;;;;-0.77;100.00;100298.50;5105524;27;20044;-78
2023/01/23 01:31:39;;;;;;;18.33;10.55;;;;;;;-0.88;100.00;100295.53;5109313;27;20059;-78
2023/01/23 01:34:07;;;;;;;22.33;10.13;;;;;;;-0.96;100.00;100287.94;5110421;27;20046;-78
2023/01/23 01:36:34;;;;;;;19.60;9.35;;;;;;;-0.83;100.00;100293.47;5108409;27;20130;-78
2023/01/23 01:39:01;;;;;;;19.45;10.20;;;;;;;-1.00;100.00;100275.72;5111764;28;20050;-78
2023/01/23 01:41:27;;;;;;;15.98;8.32;;;;;;;-0.86;100.00;100306.97;5115319;27;20054;-78
2023/01/23 01:43:55;;;;;;;18.05;9.43;;;;;;;-0.88;100.00;100302.69;5111577;27;20423;-78
2023/01/23 01:46:23;;;;;;;16.60;8.75;;;;;;;-0.90;100.00;100302.78;5106998;27;20051;-79
2023/01/23 01:49:01;;;;;;;18.80;8.80;;;;;;;-0.92;100.00;100307.31;5118427;27;20047;-78
2023/01/23 01:51:33;;;;;;;18.38;8.68;;;;;;;-0.95;100.00;100300.38;5108873;27;20043;-79
2023/01/23 01:54:05;;;;;;;14.32;7.60;;;;;;;-0.90;100.00;100295.63;5091513;27;20048;-78
2023/01/23 01:56:36;;;;;;;16.63;9.70;;;;;;;-0.93;100.00;100301.13;5108784;27;20043;-78
2023/01/23 01:59:03;;;;;;;13.77;8.32;;;;;;;-0.85;100.00;100318.53;5110550;27;20051;-78
2023/01/23 02:01:30;;;;;;;20.58;9.52;;;;;;;-0.88;100.00;100316.91;5107045;27;20051;-78
2023/01/23 02:03:57;;;;;;;14.10;7.88;;;;;;;-0.95;100.00;100297.69;5103172;27;20047;-78
2023/01/23 02:06:25;;;;;;;13.90;8.45;;;;;;;-0.96;100.00;100298.63;5103393;27;20044;-78
2023/01/23 02:09:00;;;;;;;14.30;8.55;;;;;;;-0.78;100.00;100311.94;5113000;27;20051;-78
2023/01/23 02:11:27;;;;;;;15.45;8.02;;;;;;;-0.80;100.00;100301.34;5091993;28;20499;-78
2023/01/23 02:13:57;;;;;;;12.57;7.03;;;;;;;-0.90;100.00;100298.28;5106740;28;20040;-79
2023/01/23 02:16:28;;;;;;;16.88;8.68;;;;;;;-0.88;100.00;100303.53;5107591;27;20043;-79
2023/01/23 02:18:59;;;;;;;16.70;9.02;;;;;;;-0.76;100.00;100321.56;5106957;27;20043;-78
2023/01/23 02:21:27;;;;;;;16.20;8.43;;;;;;;-0.81;100.00;100309.41;5103494;28;20055;-78
2023/01/23 02:24:11;;;;;;;15.15;8.43;;;;;;;-0.82;100.00;100311.22;5108649;28;20046;-78
2023/01/23 02:26:41;;;;;;;14.07;7.35;;;;;;;-0.77;100.00;100303.84;5108866;28;20051;-78
2023/01/23 02:29:08;;;;;;;16.23;8.82;;;;;;;-0.73;100.00;100309.84;5106079;27;20050;-78
2023/01/23 02:31:36;;;;;;;19.05;8.98;;;;;;;-0.67;100.00;100311.34;5111313;27;20116;-78
2023/01/23 02:34:03;;;;;;;15.57;8.15;;;;;;;-0.81;100.00;100286.25;5104943;28;20084;-78
2023/01/23 02:36:32;;;;;;;15.93;8.45;;;;;;;-0.69;100.00;100305.19;5105724;27;20048;-79
2023/01/23 02:39:08;;;;;;;14.70;7.32;;;;;;;-0.74;100.00;100310.78;5102626;27;20075;-78
2023/01/23 02:41:36;;;;;;;12.23;6.95;;;;;;;-0.74;100.00;100311.69;5104448;27;20055;-79
2023/01/23 02:44:11;;;;;;;18.48;8.88;;;;;;;-0.79;100.00;100300.38;5102222;27;20044;-78
2023/01/23 02:46:38;;;;;;;13.95;7.95;;;;;;;-0.76;100.00;100302.00;5102955;27;20139;-78
2023/01/23 02:49:04;;;;;;;13.27;7.55;;;;;;;-0.76;100.00;100302.88;5105668;27;21435;-78
2023/01/23 02:51:31;;;;;;;15.48;8.70;;;;;;;-0.79;100.00;100297.69;5102347;27;20514;-78
2023/01/23 02:53:58;;;;;;;15.15;8.57;;;;;;;-0.65;100.00;100309.44;5106226;28;20062;-79
2023/01/23 02:56:24;;;;;;;13.32;7.82;;;;;;;-0.63;100.00;100315.53;5110601;28;20509;-78
2023/01/23 03:01:36;;;;;;;18.42;9.25;;;;;;;-0.69;100.00;100305.19;5109296;28;20062;-78
2023/01/23 03:04:05;;;;;;;16.88;8.65;;;;;;;-0.67;100.00;100306.00;5105936;28;20043;-78
2023/01/23 03:06:35;;;;;;;16.67;8.80;;;;;;;-0.66;100.00;100308.56;5105097;28;20056;-78
2023/01/23 03:09:04;;;;;;;19.88;8.88;;;;;;;-0.75;100.00;100298.41;5110670;28;20339;-78
2023/01/23 03:11:31;;;;;;;17.10;8.65;;;;;;;-0.81;100.00;100301.38;5106957;28;20055;-78
2023/01/23 03:13:57;;;;;;;17.65;10.00;;;;;;;-0.75;100.00;100314.44;5104691;28;20035;-78
2023/01/23 03:16:24;;;;;;;19.05;9.38;;;;;;;-0.84;100.00;100309.56;5103706;27;20476;-78
2023/01/23 03:18:52;;;;;;;20.35;9.32;;;;;;;-0.71;100.00;100315.97;5106742;28;20052;-78
2023/01/23 03:21:19;;;;;;;15.80;8.15;;;;;;;-0.81;100.00;100306.72;5110306;28;20074;-79
2023/01/23 03:23:47;;;;;;;11.57;7.50;;;;;;;-0.73;100.00;100321.38;5106707;28;20040;-79
2023/01/23 03:26:14;;;;;;;14.15;7.95;;;;;;;-0.76;100.00;100321.56;5111506;28;20054;-78
2023/01/23 03:31:24;;;;;;;16.35;7.70;;;;;;;-0.74;100.00;100319.69;5102000;28;20055;-79
2023/01/23 03:33:52;;;;;;;15.48;8.38;;;;;;;-0.64;100.00;100319.16;5109504;28;20051;-78
2023/01/23 03:36:19;;;;;;;16.48;8.95;;;;;;;-0.72;100.00;100298.25;5111540;28;20051;-78
2023/01/23 03:41:25;;;;;;;15.93;8.25;;;;;;;-0.75;100.00;100279.72;5110089;28;20051;-79
2023/01/23 03:43:52;;;;;;;16.30;8.23;;;;;;;-0.60;100.00;100294.88;5105389;28;20043;-78
2023/01/23 03:46:19;;;;;;;16.83;8.52;;;;;;;-0.71;100.00;100275.91;5109528;28;20055;-79
2023/01/23 03:48:45;;;;;;;14.40;7.80;;;;;;;-0.65;100.00;100302.25;5101756;28;20419;-78
2023/01/23 03:51:13;;;;;;;16.45;8.27;;;;;;;-0.57;100.00;100299.19;5108633;28;20046;-79
2023/01/23 03:53:40;;;;;;;13.63;7.57;;;;;;;-0.64;100.00;100304.00;5111056;28;20054;-78
2023/01/23 03:56:07;;;;;;;15.75;8.43;;;;;;;-0.71;100.00;100313.28;5111865;28;20051;-79
2023/01/23 03:58:34;;;;;;;15.70;7.75;;;;;;;-0.81;100.00;100310.28;5106027;28;20070;-78
2023/01/23 04:01:02;;;;;;;16.33;8.45;;;;;;;-0.91;100.00;100301.91;5110687;28;20383;-78
2023/01/23 04:03:29;;;;;;;18.42;7.97;;;;;;;-1.00;100.00;100301.56;5111662;28;20134;-79
2023/01/23 04:05:57;;;;;;;15.65;8.07;;;;;;;-0.83;100.00;100308.63;5111708;28;20044;-79
2023/01/23 04:08:25;;;;;;;16.00;8.18;;;;;;;-0.90;100.00;100300.97;5102657;28;20040;-78
2023/01/23 04:11:00;;;;;;;16.60;8.73;;;;;;;-1.04;100.00;100299.97;5112103;28;20055;-78
2023/01/23 04:13:26;;;;;;;16.63;7.60;;;;;;;-0.99;100.00;100308.63;5097378;28;20052;-78
2023/01/23 04:15:53;;;;;;;19.90;9.13;;;;;;;-0.94;100.00;100323.41;5094074;28;20048;-78
2023/01/23 04:18:19;;;;;;;16.27;8.57;;;;;;;-0.94;100.00;100314.56;5103264;28;20161;-78
2023/01/23 04:20:46;;;;;;;16.65;8.13;;;;;;;-0.98;100.00;100331.69;5107596;28;20051;-78
2023/01/23 04:23:12;;;;;;;13.55;7.18;;;;;;;-1.06;100.00;100318.75;5106513;27;20479;-78
2023/01/23 04:25:40;;;;;;;14.70;8.15;;;;;;;-1.00;100.00;100345.13;5110707;28;20063;-78
2023/01/23 04:28:06;;;;;;;13.88;6.90;;;;;;;-1.11;100.00;100336.84;5107936;28;20050;-78
2023/01/23 04:30:33;;;;;;;16.67;7.68;;;;;;;-1.01;100.00;100361.22;5110329;28;20051;-78
2023/01/23 04:32:59;;;;;;;16.63;8.10;;;;;;;-1.18;100.00;100327.41;5104719;28;20056;-78
2023/01/23 04:35:26;;;;;;;19.27;10.07;;;;;;;-1.01;100.00;100345.19;5103636;28;20062;-78
2023/01/23 04:37:52;;;;;;;19.83;9.65;;;;;;;-0.97;100.00;100350.28;5106055;28;20048;-78
2023/01/23 04:40:19;;;;;;;15.15;8.13;;;;;;;-0.93;100.00;100356.34;5099856;28;20495;-78
2023/01/23 04:42:47;;;;;;;16.05;8.18;;;;;;;-1.03;100.00;100355.94;5108218;28;20044;-78
2023/01/23 04:45:13;;;;;;;15.45;7.68;;;;;;;-0.96;100.00;100356.50;5110237;28;20407;-78
2023/01/23 04:47:40;;;;;;;17.70;8.40;;;;;;;-0.88;100.00;100348.94;5106660;28;20051;-78
2023/01/23 04:50:07;;;;;;;16.58;7.75;;;;;;;-0.76;100.00;100356.28;5113310;28;20047;-78
2023/01/23 04:52:34;;;;;;;16.00;7.60;;;;;;;-0.94;100.00;100354.59;5112458;28;20047;-78
2023/01/23 04:55:00;;;;;;;16.27;7.95;;;;;;;-0.92;100.00;100347.38;5104190;28;20516;-78
2023/01/23 04:57:27;;;;;;;14.98;8.23;;;;;;;-1.03;100.00;100331.94;5108680;28;20047;-78
2023/01/23 04:59:54;;;;;;;11.57;6.95;;;;;;;-0.96;100.00;100351.16;5109546;28;20058;-78
2023/01/23 05:02:21;;;;;;;15.00;8.30;;;;;;;-0.86;100.00;100368.38;5109789;28;20433;-78
2023/01/23 05:04:47;;;;;;;16.02;8.25;;;;;;;-0.82;100.00;100371.78;5108584;27;20043;-78
2023/01/23 05:07:14;;;;;;;15.65;8.18;;;;;;;-0.98;100.00;100350.38;5105056;27;20051;-78
2023/01/23 05:09:41;;;;;;;21.98;9.20;;;;;;;-0.96;100.00;100368.03;5113796;28;20048;-78
2023/01/23 05:12:08;;;;;;;18.80;9.05;;;;;;;-0.94;100.00;100362.63;5111397;28;20043;-78
2023/01/23 05:14:34;;;;;;;17.27;7.70;;;;;;;-0.96;100.00;100357.34;5111826;27;20051;-78
2023/01/23 05:17:02;;;;;;;19.27;8.90;;;;;;;-1.01;100.00;100334.50;5112356;28;20051;-78
2023/01/23 05:19:28;;;;;;;19.27;9.93;;;;;;;-0.95;100.00;100352.88;5112598;28;20051;-78
2023/01/23 05:21:55;;;;;;;23.33;9.68;;;;;;;-0.99;100.00;100351.34;5103960;28;20054;-78
2023/01/23 05:24:21;;;;;;;18.23;9.07;;;;;;;-0.99;100.00;100359.34;5108893;28;20075;-78
2023/01/23 05:26:48;;;;;;;20.33;8.98;;;;;;;-0.99;100.00;100360.19;5105885;28;20550;-78
2023/01/23 05:29:15;;;;;;;21.30;8.07;;;;;;;-0.87;100.00;100382.72;5111892;27;20040;-78
2023/01/23 05:31:41;;;;;;;17.27;8.40;;;;;;;-1.04;100.00;100353.38;5102808;28;20044;-79
2023/01/23 05:34:09;;;;;;;19.55;8.30;;;;;;;-0.98;100.00;100358.38;5112586;28;20138;-78
2023/01/23 05:36:36;;;;;;;17.70;8.45;;;;;;;-0.99;100.00;100351.34;5113397;28;20044;-80
2023/01/23 05:39:02;;;;;;;22.65;11.52;;;;;;;-0.88;100.00;100370.28;5113960;28;20051;-81
2023/01/23 05:41:29;;;;;;;18.23;9.23;;;;;;;-0.98;100.00;100353.91;5113602;28;20055;-81
2023/01/23 05:43:58;;;;;;;19.52;8.63;;;;;;;-0.92;100.00;100364.28;5107801;27;20044;-81
2023/01/23 05:46:25;;;;;;;25.50;11.75;;;;;;;-0.99;100.00;100352.19;5107825;28;20061;-81
2023/01/23 05:48:52;;;;;;;17.88;9.30;;;;;;;-0.91;100.00;100360.63;5113478;28;20043;-81
2023/01/23 05:51:20;;;;;;;18.35;9.13;;;;;;;-0.96;100.00;100352.03;5109443;28;20048;-81
2023/01/23 05:53:47;;;;;;;19.42;10.13;;;;;;;-0.82;100.00;100361.94;5112304;27;20588;-81
2023/01/23 05:56:13;;;;;;;20.95;9.05;;;;;;;-0.93;100.00;100354.53;5103993;28;20076;-81
2023/01/23 05:58:40;;;;;;;21.45;9.30;;;;;;;-1.00;100.00;100355.78;5106734;28;20051;-81
2023/01/23 06:01:07;;;;;;;18.95;8.93;;;;;;;-1.02;100.00;100348.78;5111943;28;20057;-80
2023/01/23 06:03:37;;;;;;;22.27;10.48;;;;;;;-0.95;100.00;100366.22;5112263;28;20483;-81
2023/01/23 06:06:16;;;;;;;21.60;10.15;;;;;;;-1.00;100.00;100361.13;5110202;27;20043;-81
2023/01/23 06:09:15;;;;;;;19.05;9.63;;;;;;;-0.79;100.00;100385.81;5100031;28;20469;-83
2023/01/23 06:11:43;;;;;;;23.02;9.40;;;;;;;-0.87;100.00;100376.47;5112841;28;20043;-81
2023/01/23 06:14:10;;;;;;;24.33;10.02;;;;;;;-0.77;100.00;100383.06;5107014;27;20063;-82
2023/01/23 06:17:17;;;;;;;23.48;11.95;;;;;;;-0.80;100.00;100384.13;5114007;28;20134;-81
2023/01/23 06:19:47;;;;;;;24.30;10.60;;;;;;;-0.96;100.00;100373.38;5106543;28;20063;-80
2023/01/23 06:22:22;;;;;;;54.60;22.80;;;;;;;-0.95;100.00;100364.44;5112306;28;20044;-80
2023/01/23 06:24:51;;;;;;;29.02;13.45;;;;;;;-0.98;100.00;100382.41;5106888;28;20044;-80
2023/01/23 06:27:18;;;;;;;56.17;22.73;;;;;;;-1.08;100.00;100366.88;5101235;28;20054;-81
2023/01/23 06:29:44;;;;;;;26.67;11.88;;;;;;;-1.05;100.00;100376.53;5113397;28;20044;-80
2023/01/23 06:32:11;;;;;;;106.68;42.80;;;;;;;-0.93;100.00;100407.06;5113003;28;20044;-80
2023/01/23 06:34:37;;;;;;;21.70;11.05;;;;;;;-0.97;100.00;100397.47;5113712;28;20131;-80
2023/01/23 06:37:04;;;;;;;28.30;12.05;;;;;;;-0.98;100.00;100401.09;5105414;28;20042;-80
2023/01/23 06:39:30;;;;;;;20.30;10.57;;;;;;;-0.92;100.00;100427.47;5113212;28;20063;-81
2023/01/23 06:41:58;;;;;;;40.35;18.55;;;;;;;-1.09;100.00;100393.66;5112344;28;20051;-80
2023/01/23 06:44:25;;;;;;;30.52;13.70;;;;;;;-0.91;100.00;100427.38;5113579;27;20118;-81
2023/01/23 06:46:53;;;;;;;28.98;13.85;;;;;;;-1.15;100.00;100415.31;5111563;28;20134;-81
2023/01/23 06:49:20;;;;;;;37.83;17.05;;;;;;;-0.99;100.00;100434.94;5108086;28;20067;-80
2023/01/23 06:51:47;;;;;;;31.67;15.77;;;;;;;-0.97;100.00;100426.84;5106574;28;20051;-80
2023/01/23 06:54:14;;;;;;;27.33;13.73;;;;;;;-1.04;100.00;100412.94;5108796;27;20039;-80
2023/01/23 06:56:40;;;;;;;25.15;12.20;;;;;;;-1.05;100.00;100418.34;5108577;27;20043;-81
2023/01/23 06:59:08;;;;;;;17.85;8.65;;;;;;;-0.95;100.00;100444.53;5110373;28;20040;-80
2023/01/23 07:01:35;;;;;;;41.10;18.35;;;;;;;-0.98;100.00;100435.78;5097059;28;20044;-80
2023/01/23 07:04:01;;;;;;;27.33;10.85;;;;;;;-0.99;100.00;100426.06;5112625;28;20044;-80
2023/01/23 07:06:30;;;;;;;28.02;14.77;;;;;;;-0.84;100.00;100451.97;5110992;28;20050;-80
2023/01/23 07:08:56;;;;;;;34.40;15.63;;;;;;;-0.81;100.00;100457.16;5110150;28;20036;-80
2023/01/23 07:11:23;;;;;;;24.92;11.40;;;;;;;-0.91;100.00;100446.06;5101069;28;20476;-80
2023/01/23 07:13:49;;;;;;;27.98;11.68;;;;;;;-0.89;100.00;100448.66;5104634;28;20051;-80
2023/01/23 07:16:17;;;;;;;25.27;12.20;;;;;;;-0.83;100.00;100460.81;5109838;28;20135;-80
2023/01/23 07:18:44;;;;;;;26.10;12.23;;;;;;;-0.84;100.00;100456.41;5112750;28;20050;-80
2023/01/23 07:21:10;;;;;;;27.92;11.88;;;;;;;-0.91;100.00;100446.06;5101268;28;20067;-80
2023/01/23 07:23:37;;;;;;;27.75;11.55;;;;;;;-0.78;100.00;100478.34;5108537;28;20048;-80
2023/01/23 07:26:08;;;;;;;21.73;9.85;;;;;;;-0.88;100.00;100458.41;5110848;28;20130;-81
2023/01/23 07:28:35;;;;;;;22.15;10.30;;;;;;;-0.76;100.00;100464.91;5111347;28;20059;-80
2023/01/23 07:31:01;;;;;;;25.48;10.38;;;;;;;-0.67;100.00;100485.78;5112006;28;20070;-80
2023/01/23 07:33:29;;;;;;;55.97;21.77;;;;;;;-0.72;100.00;100479.84;5111079;27;20074;-81
2023/01/23 07:35:56;;;;;;;46.45;26.75;;;;;;;-0.76;100.00;100465.75;5109393;28;20050;-80
2023/01/23 07:38:23;;;;;;;38.95;17.77;;;;;;;-0.72;100.00;100478.03;5111416;28;20051;-80
2023/01/23 07:40:49;;;;;;;60.55;29.80;;;;;;;-0.65;100.00;100488.38;5111495;28;20490;-80
2023/01/23 07:43:16;;;;;;;28.55;14.30;;;;;;;-0.75;100.00;100477.34;5110568;28;20051;-80
2023/01/23 07:45:43;;;;;;;31.30;14.15;;;;;;;-0.70;100.00;100474.41;5110981;28;20048;-80
2023/01/23 07:48:10;;;;;;;25.02;12.73;;;;;;;-0.82;100.00;100454.56;5110354;28;20097;-80
2023/01/23 07:50:38;;;;;;;32.10;13.43;;;;;;;-0.65;100.00;100473.19;5102366;28;20044;-80
2023/01/23 07:53:05;;;;;;;23.23;10.90;;;;;;;-0.66;100.00;100459.94;5110911;27;20143;-80
2023/01/23 07:55:32;;;;;;;24.85;10.57;;;;;;;-0.55;100.00;100470.91;5111426;28;20047;-80
2023/01/23 07:57:59;;;;;;;26.80;12.07;;;;;;;-0.60;100.00;100459.63;5111112;28;20059;-81
2023/01/23 08:00:26;;;;;;;24.13;11.05;;;;;;;-0.72;100.00;100455.81;5110136;28;20057;-80
2023/01/23 08:02:52;;;;;;;31.33;12.18;;;;;;;-0.53;100.00;100474.38;5109072;28;20604;-81
2023/01/23 08:05:19;;;;;;;25.60;11.30;;;;;;;-0.47;100.00;100479.38;5111486;28;20126;-80
2023/01/23 08:07:47;;;;;;;25.80;13.20;;;;;;;-0.49;100.00;100483.94;5111188;28;20052;-81
2023/01/23 08:10:14;;;;;;;24.40;10.93;;;;;;;-0.43;100.00;100482.75;5110032;28;20052;-81
2023/01/23 08:12:40;;;;;;;23.17;10.25;;;;;;;-0.55;100.00;100457.56;5110192;28;20490;-80
2023/01/23 08:15:11;;;;;;;22.73;9.95;;;;;;;-0.42;100.00;100466.66;5108143;28;20046;-80
2023/01/23 08:17:37;;;;;;;19.65;8.85;;;;;;;-0.46;100.00;100467.75;5105562;28;20479;-80
2023/01/23 08:20:05;;;;;;;20.13;9.05;;;;;;;-0.34;100.00;100478.75;5113829;28;20039;-81
2023/01/23 08:22:32;;;;;;;20.48;9.35;;;;;;;-0.46;100.00;100459.75;5114084;28;20464;-81
2023/01/23 08:25:00;;;;;;;17.65;7.53;;;;;;;-0.29;100.00;100474.84;5112946;28;20514;-81
2023/01/23 08:27:26;;;;;;;14.80;6.90;;;;;;;-0.24;100.00;100464.78;5115171;28;20043;-80
2023/01/23 08:29:53;;;;;;;14.38;7.40;;;;;;;-0.23;100.00;100463.81;5114677;27;20059;-80
2023/01/23 08:32:19;;;;;;;13.52;6.45;;;;;;;-0.31;100.00;100463.38;5114087;28;20506;-81
2023/01/23 08:34:46;;;;;;;18.95;7.38;;;;;;;-0.26;100.00;100468.47;5114285;28;20075;-80
2023/01/23 08:37:13;;;;;;;10.88;5.47;;;;;;;-0.25;100.00;100476.41;5113802;28;20040;-80
2023/01/23 08:39:39;;;;;;;14.45;6.97;;;;;;;-0.37;100.00;100456.56;5111521;28;20157;-80
2023/01/23 08:42:07;;;;;;;14.98;6.70;;;;;;;-0.34;100.00;100447.53;5114210;28;20046;-81
2023/01/23 08:44:34;;;;;;;9.45;5.15;;;;;;;-0.39;100.00;100449.59;5114749;28;20131;-81
2023/01/23 08:47:03;;;;;;;14.27;5.15;;;;;;;-0.30;100.00;100448.22;5115922;28;20402;-81
2023/01/23 08:49:30;;;;;;;9.23;5.20;;;;;;;-0.28;100.00;100451.69;5115652;27;20388;-80
2023/01/23 08:51:58;;;;;;;11.30;5.90;;;;;;;-0.17;100.00;100454.59;5095482;28;20040;-80
2023/01/23 08:54:25;;;;;;;12.93;5.72;;;;;;;-0.29;100.00;100436.59;5108736;28;20086;-81
2023/01/23 08:56:51;;;;;;;11.82;5.45;;;;;;;0.01;100.00;100459.91;5115843;28;20071;-80
2023/01/23 08:59:19;;;;;;;10.60;5.43;;;;;;;-0.06;100.00;100457.56;5115840;28;20047;-80
2023/01/23 09:01:46;;;;;;;10.60;7.22;;;;;;;-0.07;100.00;100439.78;5108578;28;20050;-80
2023/01/23 09:04:13;;;;;;;12.65;5.47;;;;;;;0.04;100.00;100452.56;5115031;28;20383;-80
2023/01/23 09:06:40;;;;;;;13.07;6.18;;;;;;;0.14;100.00;100467.13;5127977;27;20047;-81
2023/01/23 09:09:06;;;;;;;12.75;5.28;;;;;;;0.10;100.00;100470.06;5121824;27;20054;-80
2023/01/23 09:11:33;;;;;;;14.82;6.68;;;;;;;0.08;100.00;100454.13;5115602;28;20044;-80
2023/01/23 09:13:59;;;;;;;11.35;5.20;;;;;;;0.28;100.00;100486.91;5114144;28;20059;-80
2023/01/23 09:16:27;;;;;;;11.45;5.38;;;;;;;0.22;100.00;100481.91;5112669;28;20051;-81
2023/01/23 09:18:55;;;;;;;14.18;7.20;;;;;;;0.04;100.00;100459.72;5113971;28;20074;-80
2023/01/23 09:21:21;;;;;;;10.75;5.15;;;;;;;0.08;100.00;100463.97;5113260;28;20055;-81
2023/01/23 09:23:48;;;;;;;16.45;6.88;;;;;;;0.21;100.00;100469.47;5111918;28;20055;-80
2023/01/23 09:26:15;;;;;;;17.92;6.95;;;;;;;0.10;100.00;100472.75;5112924;28;20416;-80
2023/01/23 09:28:42;;;;;;;16.23;7.35;;;;;;;0.08;100.00;100459.47;5113784;28;20051;-81
2023/01/23 09:31:11;;;;;;;13.55;7.00;;;;;;;0.16;100.00;100477.75;5113453;28;20449;-80
2023/01/23 09:33:39;;;;;;;25.23;10.23;;;;;;;0.15;100.00;100460.84;5112822;28;20398;-80
2023/01/23 09:36:07;;;;;;;17.90;7.72;;;;;;;0.21;100.00;100477.50;5112954;28;20505;-80
2023/01/23 09:38:34;;;;;;;10.35;5.55;;;;;;;0.14;100.00;100475.16;5112279;28;20044;-81
2023/01/23 09:41:08;;;;;;;17.10;7.13;;;;;;;0.25;100.00;100482.56;5113910;28;20051;-80
2023/01/23 09:43:40;;;;;;;14.13;5.90;;;;;;;0.15;100.00;100468.88;5113112;28;20490;-80
2023/01/23 09:46:16;;;;;;;10.80;6.45;;;;;;;0.17;100.00;100469.63;5113588;28;20048;-80
2023/01/23 09:48:45;;;;;;;15.52;6.45;;;;;;;0.13;100.00;100475.25;5113713;28;20062;-80
2023/01/23 09:51:20;;;;;;;30.02;14.88;;;;;;;0.07;100.00;100462.22;5105190;28;20047;-80
2023/01/23 09:53:46;;;;;;;18.02;8.55;;;;;;;0.23;100.00;100481.81;5112780;28;20138;-80
2023/01/23 09:56:21;;;;;;;16.15;6.78;;;;;;;0.43;100.00;100495.88;5113796;28;20125;-80
2023/01/23 09:58:58;;;;;;;16.58;7.43;;;;;;;0.43;100.00;100488.69;5113345;28;20055;-80
2023/01/23 10:01:28;;;;;;;15.13;6.47;;;;;;;0.26;100.00;100470.09;5112256;27;20054;-80
2023/01/23 10:03:56;;;;;;;;;;;;;;;0.41;100.00;100493.28;5112797;28;20361;-80
2023/01/23 10:06:26;;;;;;;21.50;7.70;;;;;;;0.32;100.00;100480.44;5106088;28;20351;-80
2023/01/23 10:09:20;;;;;;;17.98;7.60;;;;;;;0.41;100.00;100497.78;5112721;27;20074;-80
2023/01/23 10:11:59;;;;;;;16.40;7.35;;;;;;;0.34;100.00;100490.06;5113107;28;20043;-80
2023/01/23 10:14:56;;;;;;;12.00;6.13;;;;;;;0.49;100.00;100496.38;5111055;28;20043;-80
2023/01/23 10:17:29;;;;;;;15.35;7.07;;;;;;;0.69;100.00;100492.56;5108497;28;20055;-80
2023/01/23 10:20:19;;;;;;;17.23;7.25;;;;;;;0.60;100.00;100471.66;5111694;28;20047;-80
2023/01/23 10:22:54;;;;;;;15.32;6.93;;;;;;;0.62;100.00;100490.34;5093384;28;20087;-80
2023/01/23 10:25:24;;;;;;;17.60;7.80;;;;;;;0.54;100.00;100472.00;5111240;28;20051;-80
2023/01/23 10:28:00;;;;;;;18.33;7.43;;;;;;;0.74;100.00;100499.44;5113062;28;20060;-80
2023/01/23 10:30:29;;;;;;;17.75;7.43;;;;;;;0.78;100.00;100482.25;5113813;28;20498;-80
2023/01/23 10:33:01;;;;;;;17.85;8.55;;;;;;;1.09;100.00;100508.09;5111954;28;20069;-80
2023/01/23 10:35:36;;;;;;;13.27;6.82;;;;;;;1.07;98.28;100496.63;5094342;28;20040;-80
2023/01/23 10:38:17;;;;;;;14.40;7.18;;;;;;;1.05;98.04;100469.94;5108049;28;20044;-80
2023/01/23 10:43:27;;;;;;;15.52;8.13;;;;;;;0.87;99.57;100447.78;5112954;28;20415;-80
2023/01/23 10:45:54;;;;;;;16.48;6.72;;;;;;;1.27;99.38;100481.16;5113595;28;20380;-80
2023/01/23 10:48:28;;;;;;;16.65;7.28;;;;;;;1.20;97.49;100469.94;5113816;28;20399;-80
2023/01/23 10:50:55;;;;;;;9.65;5.25;;;;;;;1.30;97.09;100483.66;5100795;28;20509;-80
2023/01/23 10:53:23;;;;;;;12.30;5.20;;;;;;;0.96;96.89;100461.56;5101289;28;20056;-80
2023/01/23 10:55:52;;;;;;;17.52;8.30;;;;;;;0.87;98.57;100479.03;5113041;28;20043;-80
2023/01/23 10:58:32;;;;;;;17.38;8.02;;;;;;;0.77;100.00;100464.47;5113581;28;20051;-80
2023/01/23 11:00:59;;;;;;;16.42;6.88;;;;;;;0.84;100.00;100482.78;5110643;28;20070;-80
2023/01/23 11:03:29;;;;;;;15.48;7.18;;;;;;;0.91;99.48;100487.75;5101441;28;20051;-80
2023/01/23 11:06:02;;;;;;;15.15;6.20;;;;;;;0.90;100.00;100494.06;5093261;28;20460;-80
2023/01/23 11:08:31;;;;;;;11.32;5.78;;;;;;;0.72;99.36;100486.16;5093139;28;20054;-80
2023/01/23 11:11:21;;;;;;;14.97;5.30;;;;;;;0.78;100.00;100488.47;5094042;28;20491;-81
2023/01/23 11:13:50;;;;;;;15.88;7.30;;;;;;;0.65;100.00;100464.25;5107510;28;20102;-80
2023/01/23 11:16:19;;;;;;;17.67;7.97;;;;;;;1.00;100.00;100484.53;5110674;28;20054;-80
2023/01/23 11:18:53;;;;;;;19.13;7.60;;;;;;;0.93;100.00;100470.63;5107755;28;20131;-80
2023/01/23 11:21:28;;;;;;;14.52;7.15;;;;;;;0.95;99.40;100452.69;5112123;28;20305;-81
2023/01/23 11:24:09;;;;;;;19.45;8.50;;;;;;;1.20;100.00;100465.44;5110389;28;20048;-80
2023/01/23 11:26:37;;;;;;;14.20;7.00;;;;;;;1.18;97.99;100456.63;5110246;28;20414;-80